Time;durP1;ratioP1;P1;durP2;ratioP2;P2;SDS_P1;SDS_P2;PMS_P1;PMS_P2;Temp;Humidity;BMP_temperature;BMP_pressure;BME280_temperature;BME280_humidity;BME280_pressure;Samples;Min_cycle;Max_cycle;Signal;HPM_P1;HPM_P2
2023/06/24 00:00:09;;;;;;;22.63;14.57;;;;;;;;;;10494384;22;20093;-90
2023/06/24 00:04:32;;;;;;;19.15;12.50;;;;;;;;;;10493987;22;20148;-91
2023/06/24 00:08:36;;;;;;;20.23;12.02;;;;;;;;;;10494394;22;20364;-92
2023/06/24 00:12:41;;;;;;;18.45;11.65;;;;;;;;;;10494189;22;20042;-91
2023/06/24 00:16:44;;;;;;;16.50;10.95;;;;;;;;;;10494064;22;20014;-91
2023/06/24 00:20:47;;;;;;;17.33;11.02;;;;;;;;;;10494010;22;20021;-92
2023/06/24 00:24:51;;;;;;;18.00;11.32;;;;;;;;;;10493889;22;20025;-90
2023/06/24 00:28:54;;;;;;;18.73;11.07;;;;;;;;;;10493721;22;20022;-93
2023/06/24 00:32:57;;;;;;;17.38;11.98;;;;;;;;;;10494168;22;20039;-91
2023/06/24 00:37:02;;;;;;;16.60;11.38;;;;;;;;;;10494430;22;20014;-90
2023/06/24 00:41:08;;;;;;;17.20;10.07;;;;;;;;;;10505255;22;20050;-89
2023/06/24 00:45:12;;;;;;;19.65;11.15;;;;;;;;;;10511533;22;20063;-90
2023/06/24 00:49:15;;;;;;;20.38;10.93;;;;;;;;;;10493554;22;20504;-91
2023/06/24 00:53:24;;;;;;;14.70;10.20;;;;;;;;;;10479061;22;20040;-89
2023/06/24 00:57:40;;;;;;;14.00;8.95;;;;;;;;;;10516116;22;20014;-87
2023/06/24 01:01:52;;;;;;;12.75;8.30;;;;;;;;;;10528814;22;20018;-87
2023/06/24 01:05:57;;;;;;;12.23;9.07;;;;;;;;;;10531433;22;20014;-87
2023/06/24 01:10:16;;;;;;;12.25;8.07;;;;;;;;;;10514895;22;20011;-87
2023/06/24 01:14:24;;;;;;;12.57;7.03;;;;;;;;;;10434112;22;20011;-86
2023/06/24 01:18:36;;;;;;;10.07;6.68;;;;;;;;;;10505913;22;20022;-86
2023/06/24 01:23:13;;;;;;;11.23;6.63;;;;;;;;;;10531740;22;20025;-88
2023/06/24 01:27:46;;;;;;;10.40;5.93;;;;;;;;;;10305345;23;20047;-89
2023/06/24 01:32:01;;;;;;;9.48;6.18;;;;;;;;;;10310749;23;20024;-89
2023/06/24 01:36:20;;;;;;;10.60;6.47;;;;;;;;;;10317181;23;20025;-87
2023/06/24 01:40:29;;;;;;;10.70;6.55;;;;;;;;;;10289904;23;20036;-87
2023/06/24 01:44:36;;;;;;;12.47;6.83;;;;;;;;;;10285171;23;20020;-88
2023/06/24 01:48:44;;;;;;;11.52;6.75;;;;;;;;;;10296802;23;20028;-85
2023/06/24 01:52:52;;;;;;;11.68;6.80;;;;;;;;;;10323888;23;20067;-87
2023/06/24 01:57:02;;;;;;;11.63;6.95;;;;;;;;;;10316886;23;20035;-87
2023/06/24 02:01:07;;;;;;;11.70;6.90;;;;;;;;;;10279224;23;20025;-91
2023/06/24 02:05:13;;;;;;;13.18;7.00;;;;;;;;;;10435843;22;20023;-88
2023/06/24 02:09:20;;;;;;;9.93;6.85;;;;;;;;;;10469395;22;20348;-88
2023/06/24 02:13:35;;;;;;;12.18;7.18;;;;;;;;;;10474351;22;20019;-87
2023/06/24 02:17:56;;;;;;;10.98;6.50;;;;;;;;;;10462632;22;20019;-87
2023/06/24 02:22:02;;;;;;;13.27;7.10;;;;;;;;;;10477293;22;20022;-90
2023/06/24 02:26:05;;;;;;;11.85;6.57;;;;;;;;;;10471393;22;20026;-92
2023/06/24 02:30:13;;;;;;;9.75;6.32;;;;;;;;;;10461452;22;20027;-86
2023/06/24 02:34:17;;;;;;;12.65;7.45;;;;;;;;;;10463800;22;20044;-86
2023/06/24 02:38:23;;;;;;;11.13;6.82;;;;;;;;;;10463773;22;20383;-87
2023/06/24 02:42:26;;;;;;;10.60;7.20;;;;;;;;;;10492669;22;20422;-87
2023/06/24 02:46:34;;;;;;;10.80;7.13;;;;;;;;;;10503986;22;20347;-88
2023/06/24 02:50:39;;;;;;;13.35;7.38;;;;;;;;;;10522258;22;20015;-86
2023/06/24 02:54:46;;;;;;;12.13;7.00;;;;;;;;;;10518483;22;20497;-91
2023/06/24 02:58:49;;;;;;;14.85;7.78;;;;;;;;;;10492951;22;20346;-90
2023/06/24 03:02:53;;;;;;;10.52;7.55;;;;;;;;;;10493890;22;20053;-91
2023/06/24 03:06:56;;;;;;;12.65;8.00;;;;;;;;;;10495000;22;20019;-91
2023/06/24 03:11:00;;;;;;;11.52;8.38;;;;;;;;;;10495324;22;20140;-89
2023/06/24 03:15:04;;;;;;;16.13;10.05;;;;;;;;;;10494957;22;20111;-90
2023/06/24 03:19:06;;;;;;;12.73;8.68;;;;;;;;;;10494997;22;20541;-90
2023/06/24 03:23:10;;;;;;;12.00;7.03;;;;;;;;;;10495405;22;20089;-88
2023/06/24 03:27:14;;;;;;;12.70;7.72;;;;;;;;;;10495191;22;20019;-90
2023/06/24 03:31:18;;;;;;;12.65;6.90;;;;;;;;;;10495037;22;20015;-88
2023/06/24 03:35:22;;;;;;;12.75;6.72;;;;;;;;;;10496238;22;20043;-91
2023/06/24 03:39:25;;;;;;;10.30;6.70;;;;;;;;;;10493462;22;20038;-90
2023/06/24 03:43:29;;;;;;;13.00;6.82;;;;;;;;;;10493350;22;20018;-89
2023/06/24 03:47:32;;;;;;;10.10;6.30;;;;;;;;;;10493976;22;20098;-89
2023/06/24 03:51:35;;;;;;;11.48;6.90;;;;;;;;;;10494180;22;20014;-90
2023/06/24 03:55:38;;;;;;;10.35;6.50;;;;;;;;;;10494181;22;20063;-91
2023/06/24 03:59:42;;;;;;;10.13;6.30;;;;;;;;;;10494149;22;20529;-91
2023/06/24 04:03:45;;;;;;;9.52;6.30;;;;;;;;;;10493928;22;20089;-88
2023/06/24 04:07:52;;;;;;;8.60;5.93;;;;;;;;;;10493953;22;20053;-88
2023/06/24 04:11:54;;;;;;;9.93;5.63;;;;;;;;;;10511223;22;20038;-88
2023/06/24 04:15:59;;;;;;;12.55;6.00;;;;;;;;;;10493306;22;20022;-88
2023/06/24 04:20:04;;;;;;;8.85;6.00;;;;;;;;;;10493484;22;20086;-90
2023/06/24 04:24:07;;;;;;;9.20;5.93;;;;;;;;;;10493473;22;20015;-89
2023/06/24 04:28:10;;;;;;;11.35;6.00;;;;;;;;;;10493668;22;20086;-89
2023/06/24 04:32:14;;;;;;;9.27;5.47;;;;;;;;;;10493458;22;20089;-88
2023/06/24 04:36:17;;;;;;;7.20;5.07;;;;;;;;;;10493549;22;20697;-91
2023/06/24 04:40:20;;;;;;;8.50;5.10;;;;;;;;;;10493252;22;20093;-89
2023/06/24 04:44:23;;;;;;;9.23;5.03;;;;;;;;;;10493659;22;20018;-90
2023/06/24 04:48:28;;;;;;;11.05;5.22;;;;;;;;;;10493306;22;20014;-92
2023/06/24 04:52:31;;;;;;;8.40;5.05;;;;;;;;;;10511144;22;20068;-90
2023/06/24 04:56:35;;;;;;;8.25;5.28;;;;;;;;;;10492346;22;20034;-88
2023/06/24 05:00:38;;;;;;;7.53;5.07;;;;;;;;;;10492797;22;20019;-93
2023/06/24 05:04:42;;;;;;;6.57;4.30;;;;;;;;;;10491550;22;20050;-88
2023/06/24 05:08:45;;;;;;;8.48;4.85;;;;;;;;;;10491338;22;20023;-92
2023/06/24 05:12:49;;;;;;;10.93;5.47;;;;;;;;;;10492181;22;20063;-93
2023/06/24 05:16:52;;;;;;;6.72;4.57;;;;;;;;;;10493200;22;20014;-91
2023/06/24 05:20:56;;;;;;;7.93;5.05;;;;;;;;;;10492879;22;20030;-92
2023/06/24 05:24:59;;;;;;;8.60;5.40;;;;;;;;;;10492531;22;20092;-89
2023/06/24 05:29:03;;;;;;;9.02;4.78;;;;;;;;;;10493387;22;20381;-89
2023/06/24 05:33:06;;;;;;;8.57;5.22;;;;;;;;;;10493015;22;20046;-92
2023/06/24 05:37:10;;;;;;;8.82;5.07;;;;;;;;;;10493250;22;20094;-90
2023/06/24 05:41:13;;;;;;;8.98;5.75;;;;;;;;;;10491623;22;20391;-88
2023/06/24 05:45:35;;;;;;;7.32;4.97;;;;;;;;;;10464845;22;20019;-88
2023/06/24 05:49:38;;;;;;;10.02;5.30;;;;;;;;;;10490789;22;20054;-89
2023/06/24 05:53:43;;;;;;;10.02;4.93;;;;;;;;;;10490768;22;20025;-90
2023/06/24 05:57:46;;;;;;;8.13;5.22;;;;;;;;;;10490592;22;20438;-89
2023/06/24 06:01:49;;;;;;;7.53;4.80;;;;;;;;;;10491886;22;20015;-94
2023/06/24 06:05:52;;;;;;;7.72;4.82;;;;;;;;;;10492947;22;20025;-90
2023/06/24 06:09:57;;;;;;;10.00;5.35;;;;;;;;;;10493040;22;20090;-89
2023/06/24 06:13:59;;;;;;;9.30;5.60;;;;;;;;;;10465211;22;20443;-90
2023/06/24 06:18:02;;;;;;;10.50;5.25;;;;;;;;;;10491844;22;20450;-89
2023/06/24 06:22:05;;;;;;;6.93;4.70;;;;;;;;;;10492092;22;20041;-89
2023/06/24 06:26:10;;;;;;;9.77;5.03;;;;;;;;;;10492127;22;20440;-90
2023/06/24 06:30:14;;;;;;;8.25;4.50;;;;;;;;;;10492216;22;20458;-91
2023/06/24 06:34:19;;;;;;;8.27;4.57;;;;;;;;;;10491970;22;20021;-92
2023/06/24 06:38:25;;;;;;;7.85;4.60;;;;;;;;;;10491755;22;20019;-90
2023/06/24 06:42:31;;;;;;;8.07;4.25;;;;;;;;;;10491013;22;20023;-90
2023/06/24 06:46:37;;;;;;;9.82;4.68;;;;;;;;;;10509501;22;20038;-92
2023/06/24 06:50:40;;;;;;;8.23;4.43;;;;;;;;;;10492000;22;20168;-90
2023/06/24 06:54:43;;;;;;;7.35;3.97;;;;;;;;;;10492309;22;20019;-91
2023/06/24 06:58:48;;;;;;;8.95;4.63;;;;;;;;;;10491967;22;20046;-92
2023/06/24 07:02:52;;;;;;;8.02;3.88;;;;;;;;;;10491736;22;20342;-89
2023/06/24 07:06:54;;;;;;;6.85;3.97;;;;;;;;;;10492277;22;20015;-91
2023/06/24 07:10:58;;;;;;;6.30;4.20;;;;;;;;;;10491777;22;20026;-87
2023/06/24 07:15:06;;;;;;;9.27;4.60;;;;;;;;;;10492070;22;20094;-91
2023/06/24 07:19:09;;;;;;;5.75;3.95;;;;;;;;;;10506754;22;20018;-91
2023/06/24 07:23:12;;;;;;;8.57;4.18;;;;;;;;;;10491418;22;20034;-91
2023/06/24 07:27:15;;;;;;;6.53;4.50;;;;;;;;;;10491817;22;20019;-90
2023/06/24 07:31:19;;;;;;;7.85;4.28;;;;;;;;;;10491750;22;20459;-91
2023/06/24 07:35:22;;;;;;;7.15;4.10;;;;;;;;;;10463767;22;20068;-89
2023/06/24 07:39:24;;;;;;;8.48;4.60;;;;;;;;;;10491033;22;20093;-89
2023/06/24 07:43:35;;;;;;;5.95;4.20;;;;;;;;;;10490933;22;20015;-89
2023/06/24 07:47:40;;;;;;;5.85;3.42;;;;;;;;;;10462853;22;20011;-91
2023/06/24 07:51:44;;;;;;;6.63;3.90;;;;;;;;;;10494644;22;20022;-89
2023/06/24 07:55:48;;;;;;;7.25;3.65;;;;;;;;;;10500924;22;20015;-93
2023/06/24 08:00:09;;;;;;;6.30;3.90;;;;;;;;;;10504393;22;20076;-95
2023/06/24 08:04:21;;;;;;;6.68;3.92;;;;;;;;;;10508490;22;20018;-92
2023/06/24 08:08:31;;;;;;;6.07;3.63;;;;;;;;;;10512205;22;20010;-92
2023/06/24 08:12:45;;;;;;;6.10;4.05;;;;;;;;;;10529214;22;20015;-93
2023/06/24 08:16:49;;;;;;;8.50;4.03;;;;;;;;;;10514686;22;20022;-91
2023/06/24 08:20:54;;;;;;;8.38;4.18;;;;;;;;;;10494048;22;20022;-90
2023/06/24 08:24:57;;;;;;;11.18;5.65;;;;;;;;;;10465040;22;20019;-89
2023/06/24 08:29:00;;;;;;;4.68;3.35;;;;;;;;;;10492648;22;20094;-89
2023/06/24 08:33:04;;;;;;;8.40;4.07;;;;;;;;;;10491015;22;20067;-89
2023/06/24 08:37:08;;;;;;;6.05;3.65;;;;;;;;;;10491855;22;20018;-89
2023/06/24 08:41:11;;;;;;;7.43;3.92;;;;;;;;;;10491828;22;20385;-92
2023/06/24 08:45:14;;;;;;;5.32;3.95;;;;;;;;;;10492361;22;20011;-91
2023/06/24 08:49:27;;;;;;;6.28;4.57;;;;;;;;;;10491820;22;20079;-91
2023/06/24 08:53:32;;;;;;;5.47;3.75;;;;;;;;;;10510437;22;20453;-94
2023/06/24 08:57:35;;;;;;;5.82;3.72;;;;;;;;;;10510739;22;20026;-89
2023/06/24 09:01:38;;;;;;;8.60;4.25;;;;;;;;;;10492011;22;20427;-91
2023/06/24 09:05:41;;;;;;;5.80;4.13;;;;;;;;;;10492556;22;20092;-91
2023/06/24 09:09:46;;;;;;;7.18;4.82;;;;;;;;;;10492292;22;20038;-93
2023/06/24 09:13:49;;;;;;;7.57;4.57;;;;;;;;;;10509681;22;20042;-91
2023/06/24 09:17:52;;;;;;;7.45;4.40;;;;;;;;;;10492365;22;20030;-92
2023/06/24 09:21:55;;;;;;;8.63;4.10;;;;;;;;;;10491745;22;20451;-91
2023/06/24 09:26:00;;;;;;;8.55;4.55;;;;;;;;;;10492556;22;20015;-89
2023/06/24 09:30:19;;;;;;;6.63;4.07;;;;;;;;;;10492551;22;20068;-90
2023/06/24 09:34:23;;;;;;;7.20;4.53;;;;;;;;;;10509961;22;20110;-92
2023/06/24 09:38:34;;;;;;;6.40;4.43;;;;;;;;;;10492326;22;20516;-88
2023/06/24 09:42:48;;;;;;;8.75;4.40;;;;;;;;;;10496592;22;20090;-90
2023/06/24 09:46:51;;;;;;;7.30;5.10;;;;;;;;;;10509398;22;20139;-87
2023/06/24 09:50:54;;;;;;;9.05;4.95;;;;;;;;;;10491876;22;20103;-87
2023/06/24 09:55:00;;;;;;;9.02;4.60;;;;;;;;;;10491592;22;20099;-88
2023/06/24 09:59:06;;;;;;;5.50;3.70;;;;;;;;;;10508728;22;20019;-89
2023/06/24 10:03:09;;;;;;;8.70;4.15;;;;;;;;;;10508797;22;20486;-90
2023/06/24 10:07:12;;;;;;;7.55;3.80;;;;;;;;;;10492003;22;20015;-88
2023/06/24 10:11:15;;;;;;;5.68;3.78;;;;;;;;;;10491276;22;20014;-90
2023/06/24 10:16:05;;;;;;;7.47;4.53;;;;;;;;;;10502603;22;19999;-85
2023/06/24 10:20:14;;;;;;;8.80;4.53;;;;;;;;;;10507375;22;20018;-87
2023/06/24 10:24:41;;;;;;;7.78;4.35;;;;;;;;;;10517711;22;20087;-93
2023/06/24 10:29:27;;;;;;;8.05;5.18;;;;;;;;;;10509620;22;20038;-89
2023/06/24 10:33:39;;;;;;;6.00;4.40;;;;;;;;;;10461112;22;20011;-90
2023/06/24 10:37:56;;;;;;;6.97;4.28;;;;;;;;;;10503856;22;20068;-90
2023/06/24 10:42:19;;;;;;;7.15;4.80;;;;;;;;;;10493518;22;20501;-89
2023/06/24 10:46:21;;;;;;;10.27;5.55;;;;;;;;;;10486382;22;20022;-89
2023/06/24 10:50:25;;;;;;;8.63;4.70;;;;;;;;;;10484574;22;20049;-91
2023/06/24 10:54:30;;;;;;;9.82;4.78;;;;;;;;;;10485463;22;20334;-89
2023/06/24 10:59:05;;;;;;;9.82;4.63;;;;;;;;;;10501491;22;20022;-91
2023/06/24 11:03:23;;;;;;;8.57;5.13;;;;;;;;;;10514359;22;20712;-88
2023/06/24 11:07:27;;;;;;;9.80;5.05;;;;;;;;;;10495374;22;20064;-88
2023/06/24 11:11:31;;;;;;;8.45;4.78;;;;;;;;;;10502113;22;20064;-88
2023/06/24 11:15:34;;;;;;;8.02;4.50;;;;;;;;;;10492239;22;20046;-93
2023/06/24 11:19:39;;;;;;;7.40;5.00;;;;;;;;;;10489633;22;20029;-88
2023/06/24 11:23:48;;;;;;;8.10;4.80;;;;;;;;;;10507304;22;20036;-91
2023/06/24 11:28:06;;;;;;;7.35;4.72;;;;;;;;;;10525648;22;20029;-91
2023/06/24 11:32:37;;;;;;;7.70;4.78;;;;;;;;;;10237850;23;20129;-90
2023/06/24 11:36:40;;;;;;;8.18;4.88;;;;;;;;;;10245306;23;20028;-91
2023/06/24 11:40:44;;;;;;;7.40;4.93;;;;;;;;;;10241226;23;20473;-93
2023/06/24 11:45:03;;;;;;;8.48;4.60;;;;;;;;;;10246449;23;20029;-88
2023/06/24 11:49:07;;;;;;;7.95;4.70;;;;;;;;;;10267325;23;20005;-89
2023/06/24 11:53:16;;;;;;;7.82;4.60;;;;;;;;;;10258889;23;20025;-87
2023/06/24 11:57:43;;;;;;;8.52;4.20;;;;;;;;;;10246934;23;20043;-84
2023/06/24 12:01:54;;;;;;;8.38;4.70;;;;;;;;;;10332507;22;20084;-87
2023/06/24 12:05:57;;;;;;;6.00;4.30;;;;;;;;;;10510877;22;20015;-87
2023/06/24 12:10:00;;;;;;;10.38;5.05;;;;;;;;;;10494971;22;20347;-89
2023/06/24 12:14:03;;;;;;;10.10;5.10;;;;;;;;;;10498700;22;20469;-89
2023/06/24 12:18:07;;;;;;;13.70;5.90;;;;;;;;;;10492011;22;20018;-89
2023/06/24 12:22:10;;;;;;;8.82;5.68;;;;;;;;;;10493929;22;20015;-88
2023/06/24 12:26:15;;;;;;;9.57;5.05;;;;;;;;;;10486114;22;20451;-91
2023/06/24 12:30:20;;;;;;;9.05;5.35;;;;;;;;;;10487936;22;20044;-91
2023/06/24 12:34:40;;;;;;;8.98;5.28;;;;;;;;;;10505115;22;20098;-88
2023/06/24 12:38:46;;;;;;;10.45;5.13;;;;;;;;;;10487901;22;20330;-88
2023/06/24 12:42:48;;;;;;;7.68;5.45;;;;;;;;;;10486980;22;20432;-91
2023/06/24 12:46:51;;;;;;;10.27;5.78;;;;;;;;;;10459630;22;20062;-89
2023/06/24 12:50:56;;;;;;;8.15;5.38;;;;;;;;;;10487803;22;20098;-93
2023/06/24 12:54:59;;;;;;;10.98;6.10;;;;;;;;;;10486595;22;20311;-91
2023/06/24 12:59:02;;;;;;;9.88;6.57;;;;;;;;;;10486941;22;20103;-90
2023/06/24 13:03:05;;;;;;;9.82;6.45;;;;;;;;;;10487318;22;20046;-91
2023/06/24 13:07:10;;;;;;;9.48;6.93;;;;;;;;;;10484538;22;20015;-92
2023/06/24 13:11:14;;;;;;;10.55;6.78;;;;;;;;;;10488144;22;20015;-91
2023/06/24 13:15:16;;;;;;;11.70;6.85;;;;;;;;;;10486934;22;20105;-89
2023/06/24 13:19:19;;;;;;;13.27;7.00;;;;;;;;;;10483591;22;20383;-90
2023/06/24 13:23:24;;;;;;;11.93;6.10;;;;;;;;;;10484230;22;20046;-90
2023/06/24 13:27:27;;;;;;;10.02;5.93;;;;;;;;;;10486487;22;20104;-89
2023/06/24 13:31:30;;;;;;;10.32;5.78;;;;;;;;;;10485391;22;20481;-89
2023/06/24 13:35:33;;;;;;;8.52;5.07;;;;;;;;;;10459024;22;20015;-89
2023/06/24 13:39:38;;;;;;;8.77;4.72;;;;;;;;;;10486793;22;20055;-88
2023/06/24 13:43:43;;;;;;;7.60;4.90;;;;;;;;;;10485232;22;20450;-90
2023/06/24 13:47:47;;;;;;;10.02;5.28;;;;;;;;;;10458714;22;20029;-90
2023/06/24 13:51:50;;;;;;;9.30;5.10;;;;;;;;;;10487408;22;20351;-90
2023/06/24 13:55:55;;;;;;;9.77;5.50;;;;;;;;;;10486633;22;20094;-91
2023/06/24 13:59:58;;;;;;;12.95;7.10;;;;;;;;;;10486535;22;20030;-90
2023/06/24 14:04:01;;;;;;;15.85;6.28;;;;;;;;;;10486630;22;20050;-90
2023/06/24 14:08:04;;;;;;;12.95;6.50;;;;;;;;;;10486958;22;20385;-90
2023/06/24 14:12:10;;;;;;;10.05;5.97;;;;;;;;;;10458762;22;20029;-93
2023/06/24 14:16:14;;;;;;;9.63;6.00;;;;;;;;;;10503664;22;20064;-91
2023/06/24 14:20:16;;;;;;;10.45;6.75;;;;;;;;;;10485233;22;20569;-88
2023/06/24 14:24:19;;;;;;;10.75;6.47;;;;;;;;;;10490446;22;20057;-89
2023/06/24 14:28:24;;;;;;;12.27;6.65;;;;;;;;;;10491273;22;20083;-91
2023/06/24 14:32:27;;;;;;;17.73;8.25;;;;;;;;;;10491795;22;20110;-91
2023/06/24 14:36:30;;;;;;;10.77;7.13;;;;;;;;;;10495036;22;20400;-89
2023/06/24 14:40:33;;;;;;;11.82;7.28;;;;;;;;;;10490924;22;20064;-92
2023/06/24 14:44:38;;;;;;;13.93;6.85;;;;;;;;;;10492051;22;20342;-90
2023/06/24 14:48:41;;;;;;;11.55;7.00;;;;;;;;;;10491969;22;20019;-89
2023/06/24 14:52:44;;;;;;;9.30;6.18;;;;;;;;;;10491698;22;20087;-91
2023/06/24 14:56:47;;;;;;;10.18;5.97;;;;;;;;;;10491488;22;20026;-88
2023/06/24 15:00:52;;;;;;;6.78;4.63;;;;;;;;;;10491203;22;20048;-91
2023/06/24 15:04:54;;;;;;;8.73;4.97;;;;;;;;;;10492013;22;20026;-91
2023/06/24 15:08:57;;;;;;;6.78;4.25;;;;;;;;;;10492154;22;20082;-89
2023/06/24 15:13:00;;;;;;;7.20;5.00;;;;;;;;;;10491752;22;20060;-90
2023/06/24 15:17:05;;;;;;;6.63;4.60;;;;;;;;;;10492055;22;20026;-91
2023/06/24 15:21:08;;;;;;;8.50;4.45;;;;;;;;;;10492299;22;20022;-89
2023/06/24 15:25:11;;;;;;;6.18;4.15;;;;;;;;;;10491831;22;20029;-89
2023/06/24 15:29:14;;;;;;;7.45;4.68;;;;;;;;;;10462569;22;20060;-88
2023/06/24 15:33:18;;;;;;;9.70;4.78;;;;;;;;;;10490746;22;20042;-89
2023/06/24 15:37:21;;;;;;;7.53;4.53;;;;;;;;;;10491246;22;20015;-90
2023/06/24 15:41:24;;;;;;;6.95;4.53;;;;;;;;;;10491466;22;20339;-87
2023/06/24 15:45:28;;;;;;;12.25;6.05;;;;;;;;;;10490810;22;20023;-89
2023/06/24 15:49:32;;;;;;;8.18;5.13;;;;;;;;;;10491898;22;20034;-88
2023/06/24 15:53:36;;;;;;;8.48;4.80;;;;;;;;;;10497647;22;20038;-88
2023/06/24 15:57:39;;;;;;;12.80;5.28;;;;;;;;;;10497398;22;20015;-88
2023/06/24 16:01:43;;;;;;;11.75;5.35;;;;;;;;;;10495716;22;20019;-89
2023/06/24 16:05:47;;;;;;;9.93;5.18;;;;;;;;;;10494795;22;20023;-92
2023/06/24 16:09:50;;;;;;;9.10;5.20;;;;;;;;;;10495572;22;20124;-90
2023/06/24 16:13:53;;;;;;;9.52;4.85;;;;;;;;;;10497959;22;20069;-92
2023/06/24 16:17:56;;;;;;;9.68;4.45;;;;;;;;;;10497451;22;20015;-90
2023/06/24 16:22:01;;;;;;;12.65;5.50;;;;;;;;;;10498575;22;20439;-92
2023/06/24 16:26:04;;;;;;;9.32;5.28;;;;;;;;;;10497360;22;20021;-89
2023/06/24 16:30:09;;;;;;;7.53;4.78;;;;;;;;;;10497321;22;20044;-89
2023/06/24 16:34:12;;;;;;;17.10;5.03;;;;;;;;;;10497286;22;20392;-92
2023/06/24 16:38:17;;;;;;;7.43;4.53;;;;;;;;;;10497285;22;20015;-90
2023/06/24 16:42:20;;;;;;;12.07;5.15;;;;;;;;;;10495551;22;20018;-91
2023/06/24 16:46:23;;;;;;;9.45;5.43;;;;;;;;;;10497089;22;20018;-94
2023/06/24 16:50:26;;;;;;;13.27;5.50;;;;;;;;;;10496145;22;20355;-89
2023/06/24 16:54:30;;;;;;;9.15;4.70;;;;;;;;;;10497604;22;20015;-90
2023/06/24 16:58:33;;;;;;;10.75;5.60;;;;;;;;;;10469880;22;20046;-91
2023/06/24 17:02:36;;;;;;;15.27;5.63;;;;;;;;;;10496364;22;20019;-91
2023/06/24 17:06:40;;;;;;;12.63;6.00;;;;;;;;;;10495975;22;20030;-88
2023/06/24 17:10:47;;;;;;;10.48;5.32;;;;;;;;;;10469152;22;20015;-89
2023/06/24 17:14:50;;;;;;;12.80;5.57;;;;;;;;;;10513312;22;20432;-90
2023/06/24 17:18:53;;;;;;;17.05;6.60;;;;;;;;;;10495824;22;20041;-89
2023/06/24 17:22:56;;;;;;;17.55;6.15;;;;;;;;;;10497852;22;20035;-90
2023/06/24 17:27:01;;;;;;;13.43;6.43;;;;;;;;;;10483544;22;20132;-89
2023/06/24 17:31:04;;;;;;;16.58;6.97;;;;;;;;;;10496541;22;20477;-89
2023/06/24 17:35:08;;;;;;;23.17;10.55;;;;;;;;;;10494520;22;20075;-88
2023/06/24 17:39:11;;;;;;;14.90;6.90;;;;;;;;;;10495719;22;20018;-86
2023/06/24 17:43:15;;;;;;;18.00;8.32;;;;;;;;;;10494044;22;20022;-87
2023/06/24 17:47:19;;;;;;;10.82;5.88;;;;;;;;;;10493634;22;20026;-86
2023/06/24 17:51:22;;;;;;;12.05;5.93;;;;;;;;;;10494993;22;20042;-86
2023/06/24 17:55:26;;;;;;;10.85;5.85;;;;;;;;;;10495632;22;20383;-86
2023/06/24 17:59:31;;;;;;;8.75;4.80;;;;;;;;;;10494159;22;20641;-88
2023/06/24 18:03:35;;;;;;;11.02;5.10;;;;;;;;;;10492873;22;20019;-87
2023/06/24 18:07:39;;;;;;;9.50;5.28;;;;;;;;;;10491541;22;20041;-87
2023/06/24 18:11:42;;;;;;;8.65;4.72;;;;;;;;;;10492177;22;20053;-87
2023/06/24 18:15:46;;;;;;;7.55;4.35;;;;;;;;;;10491670;22;20312;-88
2023/06/24 18:19:49;;;;;;;11.15;5.90;;;;;;;;;;10491650;22;20014;-87
2023/06/24 18:23:52;;;;;;;11.85;5.82;;;;;;;;;;10491513;22;20467;-87
2023/06/24 18:27:55;;;;;;;8.48;5.20;;;;;;;;;;10491512;22;20018;-88
2023/06/24 18:31:59;;;;;;;13.10;5.90;;;;;;;;;;10491090;22;20346;-88
2023/06/24 18:36:02;;;;;;;10.93;5.95;;;;;;;;;;10490848;22;20014;-88
2023/06/24 18:40:06;;;;;;;11.10;6.38;;;;;;;;;;10489821;22;20038;-89
2023/06/24 18:44:09;;;;;;;8.88;4.82;;;;;;;;;;10508357;22;20053;-87
2023/06/24 18:48:15;;;;;;;11.73;5.38;;;;;;;;;;10491590;22;20067;-88
2023/06/24 18:52:17;;;;;;;8.48;4.82;;;;;;;;;;10506961;22;20019;-86
2023/06/24 18:56:21;;;;;;;11.23;6.10;;;;;;;;;;10492504;22;20080;-93
2023/06/24 19:00:24;;;;;;;13.45;6.75;;;;;;;;;;10494703;22;20015;-90
2023/06/24 19:04:29;;;;;;;12.70;7.07;;;;;;;;;;10494342;22;20042;-91
2023/06/24 19:08:33;;;;;;;14.65;7.40;;;;;;;;;;10494468;22;20061;-89
2023/06/24 19:12:36;;;;;;;12.55;6.45;;;;;;;;;;10468478;22;20015;-92
2023/06/24 19:16:39;;;;;;;32.72;19.60;;;;;;;;;;10498572;22;20079;-87
2023/06/24 19:20:44;;;;;;;13.23;8.13;;;;;;;;;;10495112;22;20022;-89
2023/06/24 19:24:51;;;;;;;12.52;6.47;;;;;;;;;;10507454;22;20022;-89
2023/06/24 19:28:54;;;;;;;10.27;6.30;;;;;;;;;;10508072;22;20024;-88
2023/06/24 19:32:56;;;;;;;10.70;6.32;;;;;;;;;;10462075;22;20090;-89
2023/06/24 19:37:01;;;;;;;11.75;7.50;;;;;;;;;;10490752;22;20022;-89
2023/06/24 19:41:05;;;;;;;14.52;8.05;;;;;;;;;;10491599;22;20022;-92
2023/06/24 19:45:09;;;;;;;12.02;8.02;;;;;;;;;;10503551;22;20474;-89
2023/06/24 19:49:12;;;;;;;12.23;8.15;;;;;;;;;;10504360;22;20019;-88
2023/06/24 19:53:17;;;;;;;11.93;7.45;;;;;;;;;;10501639;22;20076;-91
2023/06/24 19:57:20;;;;;;;10.00;6.35;;;;;;;;;;10493744;22;20014;-90
2023/06/24 20:01:23;;;;;;;9.50;5.43;;;;;;;;;;10494036;22;20014;-90
2023/06/24 20:05:27;;;;;;;9.82;5.93;;;;;;;;;;10494891;22;20023;-89
2023/06/24 20:09:31;;;;;;;10.25;5.95;;;;;;;;;;10494942;22;20014;-90
2023/06/24 20:13:34;;;;;;;11.32;5.93;;;;;;;;;;10494984;22;20070;-92
2023/06/24 20:17:37;;;;;;;13.05;5.95;;;;;;;;;;10495240;22;20019;-92
2023/06/24 20:21:40;;;;;;;9.73;6.07;;;;;;;;;;10494885;22;20443;-90
2023/06/24 20:25:45;;;;;;;11.50;6.60;;;;;;;;;;10494125;22;20046;-91
2023/06/24 20:29:49;;;;;;;11.20;6.90;;;;;;;;;;10494246;22;20091;-89
2023/06/24 20:33:52;;;;;;;12.77;6.20;;;;;;;;;;10494464;22;20093;-89
2023/06/24 20:37:55;;;;;;;10.52;6.10;;;;;;;;;;10494673;22;20101;-90
2023/06/24 20:41:59;;;;;;;11.13;6.57;;;;;;;;;;10493983;22;20019;-91
2023/06/24 20:46:02;;;;;;;11.70;6.43;;;;;;;;;;10494196;22;20097;-90
2023/06/24 20:50:06;;;;;;;11.88;6.80;;;;;;;;;;10494137;22;20101;-90
2023/06/24 20:54:09;;;;;;;13.43;7.40;;;;;;;;;;10494046;22;20401;-90
2023/06/24 20:58:14;;;;;;;14.00;7.40;;;;;;;;;;10493532;22;20015;-91
2023/06/24 21:02:17;;;;;;;16.80;8.80;;;;;;;;;;10493344;22;20090;-91
2023/06/24 21:06:20;;;;;;;14.57;7.93;;;;;;;;;;10493597;22;20015;-89
2023/06/24 21:10:23;;;;;;;14.63;7.80;;;;;;;;;;10493430;22;20050;-90
2023/06/24 21:14:29;;;;;;;14.98;8.32;;;;;;;;;;10510846;22;20077;-91
2023/06/24 21:18:33;;;;;;;16.23;7.55;;;;;;;;;;10492878;22;20464;-89
2023/06/24 21:22:35;;;;;;;12.65;7.30;;;;;;;;;;10493302;22;20060;-91
2023/06/24 21:26:38;;;;;;;13.55;7.78;;;;;;;;;;10493481;22;20025;-90
2023/06/24 21:30:43;;;;;;;12.43;7.70;;;;;;;;;;10493618;22;20094;-91
2023/06/24 21:34:46;;;;;;;15.93;7.70;;;;;;;;;;10492647;22;20432;-91
2023/06/24 21:38:51;;;;;;;19.45;8.63;;;;;;;;;;10492779;22;20015;-88
2023/06/24 21:42:54;;;;;;;15.05;8.10;;;;;;;;;;10464790;22;20019;-89
2023/06/24 21:46:58;;;;;;;16.35;7.90;;;;;;;;;;10492703;22;20050;-90
2023/06/24 21:51:02;;;;;;;14.48;7.15;;;;;;;;;;10492244;22;20038;-89
2023/06/24 21:55:06;;;;;;;18.08;7.95;;;;;;;;;;10492499;22;20026;-91
2023/06/24 21:59:10;;;;;;;19.33;9.45;;;;;;;;;;10492234;22;20021;-88
2023/06/24 22:03:14;;;;;;;16.67;8.23;;;;;;;;;;10492342;22;20410;-88
2023/06/24 22:07:17;;;;;;;20.92;7.97;;;;;;;;;;10492097;22;20018;-88
2023/06/24 22:11:20;;;;;;;13.10;8.35;;;;;;;;;;10492059;22;20042;-87
2023/06/24 22:15:23;;;;;;;18.52;8.80;;;;;;;;;;10492253;22;20043;-89
2023/06/24 22:19:27;;;;;;;17.05;7.30;;;;;;;;;;10491988;22;20065;-88
2023/06/24 22:23:30;;;;;;;15.10;8.80;;;;;;;;;;10491578;22;20066;-89
2023/06/24 22:27:33;;;;;;;17.63;8.10;;;;;;;;;;10491308;22;20042;-88
2023/06/24 22:31:36;;;;;;;16.52;7.35;;;;;;;;;;10464021;22;20481;-91
2023/06/24 22:35:40;;;;;;;13.30;7.65;;;;;;;;;;10491556;22;20519;-87
2023/06/24 22:39:43;;;;;;;13.98;8.00;;;;;;;;;;10491433;22;20443;-90
2023/06/24 22:43:46;;;;;;;15.38;7.22;;;;;;;;;;10491487;22;20100;-88
2023/06/24 22:47:49;;;;;;;16.08;7.32;;;;;;;;;;10491086;22;20494;-89
2023/06/24 22:51:53;;;;;;;16.30;7.72;;;;;;;;;;10491344;22;20019;-88
2023/06/24 22:55:56;;;;;;;12.27;7.32;;;;;;;;;;10490740;22;20053;-89
2023/06/24 22:59:59;;;;;;;13.57;6.93;;;;;;;;;;10491710;22;20014;-92
2023/06/24 23:04:03;;;;;;;15.07;7.47;;;;;;;;;;10491312;22;20026;-91
2023/06/24 23:08:08;;;;;;;13.50;7.43;;;;;;;;;;10491385;22;20498;-88
2023/06/24 23:12:13;;;;;;;14.85;7.70;;;;;;;;;;10509048;22;20019;-90
2023/06/24 23:16:18;;;;;;;19.55;8.55;;;;;;;;;;10491724;22;20111;-89
2023/06/24 23:20:21;;;;;;;15.00;7.45;;;;;;;;;;10510351;22;20015;-88
2023/06/24 23:24:27;;;;;;;13.77;7.45;;;;;;;;;;10493696;22;20094;-88
2023/06/24 23:28:30;;;;;;;20.73;8.20;;;;;;;;;;10511374;22;20019;-89
2023/06/24 23:32:36;;;;;;;19.52;7.57;;;;;;;;;;10493520;22;20093;-90
2023/06/24 23:36:39;;;;;;;16.90;7.90;;;;;;;;;;10466602;22;20065;-89
2023/06/24 23:40:44;;;;;;;18.58;8.25;;;;;;;;;;10493116;22;20091;-89
2023/06/24 23:44:47;;;;;;;13.77;8.23;;;;;;;;;;10493871;22;20015;-88
2023/06/24 23:48:50;;;;;;;16.38;7.90;;;;;;;;;;10493663;22;20049;-93
2023/06/24 23:52:53;;;;;;;18.52;8.40;;;;;;;;;;10493740;22;20039;-89